createdAt,value
2019-02-14T00:02:28.427Z,12.33
2019-02-14T00:07:32.308Z,10.53
2019-02-14T00:12:36.207Z,9.10
2019-02-14T00:17:40.169Z,12.53
2019-02-14T00:22:44.131Z,11.80
2019-02-14T00:27:48.087Z,11.30
2019-02-14T00:32:52.044Z,11.03
2019-02-14T00:37:56.083Z,10.13
2019-02-14T00:42:59.971Z,14.47
2019-02-14T00:48:03.937Z,11.93
2019-02-14T00:53:07.901Z,8.73
2019-02-14T00:58:11.964Z,12.03
2019-02-14T01:03:15.919Z,10.67
2019-02-14T01:08:19.887Z,18.60
2019-02-14T01:13:24.248Z,10.90
2019-02-14T01:18:28.360Z,14.13
2019-02-14T01:23:32.239Z,9.87
2019-02-14T01:28:36.120Z,9.83
2019-02-14T01:33:40.366Z,12.40
2019-02-14T01:38:44.250Z,9.70
2019-02-14T01:43:48.163Z,7.73
2019-02-14T01:48:52.207Z,11.80
2019-02-14T01:53:56.175Z,14.00
2019-02-14T01:59:00.080Z,15.93
2019-02-14T02:04:04.122Z,11.30
2019-02-14T02:09:08.073Z,12.00
2019-02-14T02:14:12.096Z,15.07
2019-02-14T02:19:16.053Z,12.87
2019-02-14T02:24:20.019Z,12.90
2019-02-14T02:29:23.959Z,14.40
2019-02-14T02:34:27.920Z,13.90
2019-02-14T02:39:31.890Z,13.40
2019-02-14T02:44:35.774Z,12.53
2019-02-14T02:49:39.720Z,12.17
2019-02-14T02:54:43.679Z,13.93
2019-02-14T02:59:47.624Z,12.13
2019-02-14T03:04:51.663Z,15.20
2019-02-14T03:09:55.532Z,10.10
2019-02-14T03:14:59.423Z,13.00
2019-02-14T03:20:03.615Z,10.97
2019-02-14T03:25:10.828Z,17.40
2019-02-14T03:30:15.155Z,15.00
2019-02-14T03:35:19.087Z,8.30
2019-02-14T03:40:23.194Z,12.17
2019-02-14T03:45:27.222Z,9.87
2019-02-14T03:50:31.184Z,11.77
2019-02-14T03:55:35.219Z,11.20
2019-02-14T04:00:39.115Z,11.70
2019-02-14T04:05:43.139Z,10.97
2019-02-14T04:10:47.195Z,15.77
2019-02-14T04:15:51.085Z,12.53
2019-02-14T04:20:54.968Z,11.37
2019-02-14T04:25:58.848Z,8.07
2019-02-14T04:31:02.823Z,11.93
2019-02-14T04:36:06.783Z,8.80
2019-02-14T04:41:10.778Z,11.37
2019-02-14T04:46:14.859Z,10.80
2019-02-14T04:51:18.743Z,8.57
2019-02-14T04:56:22.631Z,10.23
2019-02-14T05:01:26.547Z,9.40
2019-02-14T05:06:30.511Z,6.27
2019-02-14T05:11:34.395Z,9.63
2019-02-14T05:16:38.360Z,10.30
2019-02-14T05:21:42.338Z,6.40
2019-02-14T05:26:46.223Z,8.87
2019-02-14T05:31:50.195Z,7.47
2019-02-14T05:36:55.304Z,8.60
2019-02-14T05:41:59.455Z,5.80
2019-02-14T05:47:03.427Z,6.80
2019-02-14T05:52:07.317Z,7.10
2019-02-14T05:57:11.223Z,7.67
2019-02-14T06:02:16.907Z,6.50
2019-02-14T06:07:20.895Z,6.20
2019-02-14T06:12:24.879Z,7.70
2019-02-14T06:17:28.791Z,6.80
2019-02-14T06:22:32.712Z,7.13
2019-02-14T06:27:36.619Z,6.77
2019-02-14T06:32:40.586Z,5.67
2019-02-14T06:37:44.881Z,8.70
2019-02-14T06:42:48.791Z,7.50
2019-02-14T06:47:52.839Z,5.33
2019-02-14T06:52:56.739Z,8.80
2019-02-14T06:58:00.715Z,5.63
2019-02-14T07:03:04.779Z,8.60
2019-02-14T07:08:09.453Z,6.23
2019-02-14T07:13:13.423Z,6.43
2019-02-14T07:18:17.402Z,7.87
2019-02-14T07:23:21.291Z,6.00
2019-02-14T07:28:25.179Z,7.80
2019-02-14T07:33:29.163Z,5.67
2019-02-14T07:38:33.127Z,6.73
2019-02-14T07:43:37.087Z,6.80
2019-02-14T07:48:41.059Z,5.27
2019-02-14T07:53:45.022Z,9.60
2019-02-14T07:58:48.980Z,9.70
2019-02-14T08:03:52.927Z,7.03
2019-02-14T08:08:56.839Z,6.03
2019-02-14T08:14:00.743Z,5.13
2019-02-14T08:19:04.727Z,6.63
2019-02-14T08:24:08.808Z,6.00
2019-02-14T08:29:12.705Z,5.50
2019-02-14T08:34:16.637Z,5.77
2019-02-14T08:39:20.535Z,4.80
2019-02-14T08:44:24.528Z,6.40
2019-02-14T08:49:28.886Z,5.33
2019-02-14T08:54:33.929Z,7.03
2019-02-14T08:59:37.907Z,6.80
2019-02-14T09:04:41.883Z,6.10
2019-02-14T09:09:46.019Z,5.40
2019-02-14T09:14:50.048Z,5.63
2019-02-14T09:19:54.079Z,4.10
2019-02-14T09:24:58.050Z,5.63
2019-02-14T09:30:02.029Z,6.47
2019-02-14T09:35:06.403Z,4.63
2019-02-14T09:40:11.678Z,4.57
2019-02-14T09:45:16.303Z,3.70
2019-02-14T09:50:20.284Z,5.63
2019-02-14T09:55:24.343Z,3.47
2019-02-14T10:00:28.438Z,4.63
2019-02-14T10:05:32.411Z,4.33
2019-02-14T10:10:36.463Z,4.13
2019-02-14T10:15:40.495Z,6.10
2019-02-14T10:20:44.380Z,4.70
2019-02-14T10:25:48.332Z,4.50
2019-02-14T10:30:52.371Z,5.37
2019-02-14T10:35:56.284Z,4.77
2019-02-14T10:41:00.303Z,3.97
2019-02-14T10:46:04.264Z,4.43
2019-02-14T10:51:08.243Z,3.93
2019-02-14T10:56:12.271Z,3.77
2019-02-14T11:01:16.325Z,4.53
2019-02-14T11:06:20.365Z,4.90
2019-02-14T11:11:24.327Z,4.40
2019-02-14T11:16:28.288Z,3.30
2019-02-14T11:21:32.246Z,4.20
2019-02-14T11:26:36.207Z,3.53
2019-02-14T11:31:41.020Z,4.20
2019-02-14T11:36:44.982Z,3.93
2019-02-14T11:41:48.852Z,4.50
2019-02-14T11:46:52.773Z,4.00
2019-02-14T11:51:56.793Z,5.23
2019-02-14T11:57:00.727Z,2.93
2019-02-14T12:02:04.767Z,3.00
2019-02-14T12:07:08.634Z,4.50
2019-02-14T12:12:12.660Z,2.80
2019-02-14T12:17:16.609Z,6.40
2019-02-14T12:22:20.478Z,3.27
2019-02-14T12:27:24.427Z,4.20
2019-02-14T12:32:28.506Z,2.23
2019-02-14T12:37:32.455Z,3.00
2019-02-14T12:42:36.326Z,3.60
2019-02-14T12:47:40.232Z,3.77
2019-02-14T12:52:44.256Z,2.53
2019-02-14T12:57:48.270Z,2.83
2019-02-14T13:02:52.282Z,2.60
2019-02-14T13:07:56.156Z,2.63
2019-02-14T13:13:00.131Z,547.52
2019-02-14T13:18:04.087Z,445.83
2019-02-14T13:23:08.004Z,528.70
2019-02-14T13:28:12.123Z,461.83
2019-02-14T13:33:16.459Z,436.87
2019-02-14T13:38:20.502Z,446.30
2019-02-14T13:43:24.401Z,471.37
2019-02-14T13:48:28.367Z,416.93
2019-02-14T13:53:32.391Z,290.30
2019-02-14T13:58:36.379Z,280.30
2019-02-14T14:03:40.349Z,272.90
2019-02-14T14:08:44.321Z,312.10
2019-02-14T14:13:48.286Z,254.50
2019-02-14T14:18:52.163Z,238.47
2019-02-14T14:23:56.473Z,205.07
2019-02-14T14:29:00.614Z,205.67
2019-02-14T14:34:04.582Z,215.70
2019-02-14T14:39:08.950Z,181.20
2019-02-14T14:44:31.959Z,116.23
2019-02-14T14:49:35.918Z,80.63
2019-02-14T14:54:39.827Z,11.90
2019-02-14T14:59:43.699Z,6.00
2019-02-14T15:04:47.643Z,4.10
2019-02-14T15:09:57.262Z,1.77
2019-02-14T15:14:57.107Z,2.23
2019-02-14T15:20:01.130Z,5.07
2019-02-14T15:25:05.207Z,4.73
2019-02-14T15:30:09.132Z,2.87
2019-02-14T15:35:13.027Z,2.47
2019-02-14T15:40:17.015Z,5.17
2019-02-14T15:45:20.975Z,2.73
2019-02-14T15:50:24.862Z,4.10
2019-02-14T15:55:28.816Z,3.10
2019-02-14T16:00:33.257Z,5.80
2019-02-14T16:05:40.139Z,7.17
2019-02-14T16:10:44.069Z,11.57
2019-02-14T16:15:48.019Z,2.50
2019-02-14T16:20:51.892Z,5.73
2019-02-14T16:25:55.843Z,3.07
2019-02-14T16:30:59.819Z,5.23
2019-02-14T16:36:03.703Z,9.73
2019-02-14T16:41:07.727Z,6.63
2019-02-14T16:46:11.597Z,15.07
2019-02-14T16:51:16.395Z,8.37
2019-02-14T16:56:20.931Z,8.67
2019-02-14T17:01:24.886Z,9.10
2019-02-14T17:06:28.768Z,9.13
2019-02-14T17:11:32.663Z,8.70
2019-02-14T17:16:36.623Z,8.97
2019-02-14T17:21:40.563Z,8.20
2019-02-14T17:26:44.454Z,7.47
2019-02-14T17:31:48.398Z,8.93
2019-02-14T17:36:52.439Z,9.87
2019-02-14T17:41:56.828Z,30.43
2019-02-14T17:47:00.698Z,22.63
2019-02-14T17:52:04.748Z,24.90
2019-02-14T17:57:08.712Z,54.57
2019-02-14T18:02:12.979Z,62.97
2019-02-14T18:07:17.003Z,34.23
2019-02-14T18:12:20.957Z,34.90
2019-02-14T18:17:24.845Z,41.03
2019-02-14T18:22:28.803Z,31.67
2019-02-14T18:27:33.006Z,38.07
2019-02-14T18:32:36.967Z,18.73
2019-02-14T18:37:40.994Z,18.90
2019-02-14T18:42:44.987Z,31.87
2019-02-14T18:47:48.944Z,25.60
2019-02-14T18:52:52.918Z,22.03
2019-02-14T18:57:56.965Z,21.77
2019-02-14T19:03:00.841Z,19.60
2019-02-14T19:08:04.802Z,25.33
2019-02-14T19:13:08.755Z,16.40
2019-02-14T19:18:12.655Z,22.77
2019-02-14T19:23:23.884Z,24.63
2019-02-14T19:28:22.194Z,22.13
2019-02-14T19:33:26.179Z,16.73
2019-02-14T19:38:30.048Z,21.43
2019-02-14T19:43:33.932Z,24.63
2019-02-14T19:48:37.915Z,19.20
2019-02-14T19:53:41.792Z,14.50
2019-02-14T19:58:45.669Z,14.63
2019-02-14T20:03:49.546Z,12.77
2019-02-14T20:08:53.519Z,14.17
2019-02-14T20:13:57.736Z,12.13
2019-02-14T20:19:01.614Z,10.37
2019-02-14T20:24:05.574Z,13.50
2019-02-14T20:29:09.507Z,9.50
2019-02-14T20:34:13.410Z,11.30
2019-02-14T20:39:17.363Z,13.97
2019-02-14T20:44:21.399Z,8.53
2019-02-14T20:49:25.283Z,9.30
2019-02-14T20:54:29.246Z,9.93
2019-02-14T20:59:33.215Z,6.20
2019-02-14T21:04:37.091Z,7.10
2019-02-14T21:09:40.975Z,9.10
2019-02-14T21:14:44.855Z,6.50
2019-02-14T21:19:48.739Z,10.23
2019-02-14T21:24:52.698Z,9.40
2019-02-14T21:29:56.618Z,9.67
2019-02-14T21:35:00.698Z,8.20
2019-02-14T21:40:06.074Z,9.80
2019-02-14T21:45:11.708Z,10.50
2019-02-14T21:50:15.767Z,9.50
2019-02-14T21:55:19.656Z,5.37
2019-02-14T22:00:23.719Z,12.83
2019-02-14T22:05:27.661Z,8.60
2019-02-14T22:10:31.546Z,8.07
2019-02-14T22:15:35.632Z,9.17
2019-02-14T22:20:39.632Z,9.17
2019-02-14T22:25:43.649Z,9.43
2019-02-14T22:30:47.615Z,7.40
2019-02-14T22:35:51.941Z,7.90
2019-02-14T22:40:55.976Z,6.03
2019-02-14T22:45:59.951Z,7.80
2019-02-14T22:51:03.832Z,8.33
2019-02-14T22:56:07.704Z,6.47
2019-02-14T23:01:12.811Z,6.70
2019-02-14T23:06:16.773Z,7.00
2019-02-14T23:11:20.731Z,6.33
2019-02-14T23:16:25.047Z,5.37
2019-02-14T23:21:28.918Z,6.43
2019-02-14T23:26:32.802Z,6.43
2019-02-14T23:31:36.709Z,7.00
2019-02-14T23:36:40.659Z,5.17
2019-02-14T23:41:44.607Z,5.40
2019-02-14T23:46:48.570Z,4.50
2019-02-14T23:51:52.521Z,3.60
2019-02-14T23:56:56.475Z,3.43
